Time,TemperatureF,DewpointF,PressureIn,WindDirection,WindDirectionDegrees,WindSpeedMPH,WindSpeedGustMPH,Humidity,HourlyPrecipIn,Conditions,Clouds,dailyrainin,SolarRadiationWatts/m^2,SoftwareType,DateUTC
2013-05-01 00:02:00,31.0,19.0,-100.00,WSW,254,2.0,4.0,61,0.00,,,-99.99,1.000000,,2013-05-01 06:02:00,
2013-05-01 00:11:00,31.0,19.0,-100.00,WSW,254,2.0,4.0,61,0.00,,,-99.99,1.000000,,2013-05-01 06:11:00,
2013-05-01 00:32:00,31.0,23.0,-100.00,SSE,157,1.0,5.0,71,0.00,,,-99.99,1.000000,,2013-05-01 06:32:00,
2013-05-01 00:42:00,31.0,23.0,-100.00,SSE,157,1.0,5.0,71,0.00,,,-99.99,1.000000,,2013-05-01 06:42:00,
2013-05-01 00:52:00,31.0,23.0,-100.00,SSE,157,1.0,5.0,71,0.00,,,-99.99,1.000000,,2013-05-01 06:52:00,
2013-05-01 01:01:00,31.0,23.0,-100.00,SSE,157,1.0,5.0,71,0.00,,,-99.99,1.000000,,2013-05-01 07:01:00,
2013-05-01 01:11:00,31.0,23.0,-100.00,SSE,157,1.0,5.0,71,0.00,,,-99.99,1.000000,,2013-05-01 07:11:00,
2013-05-01 01:32:00,30.0,21.0,-100.00,SSW,197,2.0,5.0,69,0.00,,,0.00,1.000000,,2013-05-01 07:32:00,
2013-05-01 01:42:00,30.0,21.0,-100.00,SSW,197,2.0,5.0,69,0.00,,,0.00,1.000000,,2013-05-01 07:42:00,
2013-05-01 01:52:00,30.0,21.0,-100.00,SSW,197,2.0,5.0,69,0.00,,,0.00,1.000000,,2013-05-01 07:52:00,
2013-05-01 02:01:00,30.0,21.0,-100.00,SSW,197,2.0,5.0,69,0.00,,,0.00,1.000000,,2013-05-01 08:01:00,
2013-05-01 02:11:00,30.0,21.0,-100.00,SSW,197,2.0,5.0,69,0.00,,,0.00,1.000000,,2013-05-01 08:11:00,
2013-05-01 02:42:00,29.0,22.0,-100.00,South,176,2.0,5.0,76,0.00,,,0.00,1.000000,,2013-05-01 08:42:00,
2013-05-01 02:53:00,29.0,22.0,-100.00,South,176,2.0,5.0,76,0.00,,,0.00,1.000000,,2013-05-01 08:53:00,
2013-05-01 03:01:00,29.0,22.0,-100.00,South,176,2.0,5.0,76,0.00,,,0.00,1.000000,,2013-05-01 09:01:00,
2013-05-01 03:11:00,29.0,22.0,-100.00,South,176,2.0,5.0,76,0.00,,,0.00,1.000000,,2013-05-01 09:11:00,
2013-05-01 03:33:00,27.0,23.0,-100.00,SE,136,2.0,3.0,83,0.00,,,-99.99,1.000000,,2013-05-01 09:33:00,
2013-05-01 03:43:00,27.0,23.0,-100.00,SE,136,2.0,3.0,83,0.00,,,-99.99,1.000000,,2013-05-01 09:43:00,
2013-05-01 03:53:00,27.0,23.0,-100.00,SE,136,2.0,3.0,83,0.00,,,-99.99,1.000000,,2013-05-01 09:53:00,
2013-05-01 04:02:00,27.0,23.0,-100.00,SE,136,2.0,3.0,83,0.00,,,-99.99,1.000000,,2013-05-01 10:02:00,
2013-05-01 04:12:00,27.0,23.0,-100.00,SE,136,2.0,3.0,83,0.00,,,-99.99,1.000000,,2013-05-01 10:12:00,
2013-05-01 04:33:00,26.0,22.0,-100.00,NE,55,1.0,3.0,85,0.00,,,-99.99,1.000000,,2013-05-01 10:33:00,
2013-05-01 04:42:00,26.0,22.0,-100.00,NE,55,1.0,3.0,85,0.00,,,-99.99,1.000000,,2013-05-01 10:42:00,
2013-05-01 04:52:00,26.0,22.0,-100.00,NE,55,1.0,3.0,85,0.00,,,-99.99,1.000000,,2013-05-01 10:52:00,
2013-05-01 05:02:00,26.0,22.0,-100.00,NE,55,1.0,3.0,85,0.00,,,-99.99,1.000000,,2013-05-01 11:02:00,
2013-05-01 05:11:00,26.0,22.0,-100.00,NE,55,1.0,3.0,85,0.00,,,-99.99,1.000000,,2013-05-01 11:11:00,
2013-05-01 05:32:00,25.0,21.0,-100.00,East,84,1.0,4.0,83,0.00,,,-99.99,1.000000,,2013-05-01 11:32:00,
2013-05-01 05:42:00,25.0,21.0,-100.00,East,84,1.0,4.0,83,0.00,,,-99.99,1.000000,,2013-05-01 11:42:00,
2013-05-01 05:52:00,25.0,21.0,-100.00,East,84,1.0,4.0,83,0.00,,,-99.99,1.000000,,2013-05-01 11:52:00,
2013-05-01 06:01:00,25.0,21.0,-100.00,East,84,1.0,4.0,83,0.00,,,-99.99,1.000000,,2013-05-01 12:01:00,
2013-05-01 06:11:00,25.0,21.0,-100.00,East,84,1.0,4.0,83,0.00,,,-99.99,1.000000,,2013-05-01 12:11:00,
2013-05-01 07:42:00,24.0,20.0,-100.00,East,90,2.0,4.0,85,-99.99,,,0.00,1.000000,,2013-05-01 13:42:00,
2013-05-01 07:52:00,24.0,20.0,-100.00,East,90,2.0,4.0,85,-99.99,,,0.00,1.000000,,2013-05-01 13:52:00,
2013-05-01 08:02:00,24.0,20.0,-100.00,East,90,2.0,4.0,85,-99.99,,,0.00,1.000000,,2013-05-01 14:02:00,
2013-05-01 08:11:00,24.0,20.0,-100.00,East,90,2.0,4.0,85,-99.99,,,0.00,1.000000,,2013-05-01 14:11:00,
2013-05-01 08:42:00,24.0,20.0,-100.00,East,83,1.0,5.0,85,0.00,,,-99.99,10.000000,,2013-05-01 14:42:00,
2013-05-01 08:52:00,24.0,20.0,-100.00,East,83,1.0,5.0,85,0.00,,,-99.99,10.000000,,2013-05-01 14:52:00,
2013-05-01 09:01:00,24.0,20.0,-100.00,East,83,1.0,5.0,85,0.00,,,-99.99,10.000000,,2013-05-01 15:01:00,
2013-05-01 09:11:00,24.0,20.0,-100.00,East,83,1.0,5.0,85,0.00,,,-99.99,10.000000,,2013-05-01 15:11:00,
2013-05-01 09:43:00,26.0,21.0,-100.00,WNW,283,1.0,2.0,80,0.00,,,-99.99,43.000000,,2013-05-01 15:43:00,
2013-05-01 09:53:00,26.0,21.0,-100.00,WNW,283,1.0,2.0,80,0.00,,,-99.99,43.000000,,2013-05-01 15:53:00,
2013-05-01 10:42:00,35.0,20.0,-100.00,NW,318,4.0,6.0,55,-99.99,,,0.00,346.000000,,2013-05-01 16:42:00,
2013-05-01 10:53:00,35.0,20.0,-100.00,NW,318,4.0,6.0,55,-99.99,,,0.00,346.000000,,2013-05-01 16:53:00,
2013-05-01 11:02:00,35.0,20.0,-100.00,NW,318,4.0,6.0,55,-99.99,,,0.00,346.000000,,2013-05-01 17:02:00,
2013-05-01 11:12:00,35.0,20.0,-100.00,NW,318,4.0,6.0,55,-99.99,,,0.00,346.000000,,2013-05-01 17:12:00,
2013-05-01 11:42:00,40.0,16.0,-100.00,West,265,4.0,9.0,37,0.00,,,-99.99,399.000000,,2013-05-01 17:42:00,
2013-05-01 11:52:00,40.0,16.0,-100.00,West,265,4.0,9.0,37,0.00,,,-99.99,399.000000,,2013-05-01 17:52:00,
2013-05-01 12:01:00,40.0,16.0,-100.00,West,265,4.0,9.0,37,0.00,,,-99.99,399.000000,,2013-05-01 18:01:00,
2013-05-01 12:11:00,40.0,16.0,-100.00,West,265,4.0,9.0,37,0.00,,,-99.99,399.000000,,2013-05-01 18:11:00,
2013-05-01 13:43:00,41.0,12.0,-100.00,WSW,245,4.0,10.0,30,-99.99,,,0.00,645.000000,,2013-05-01 19:43:00,
2013-05-01 13:52:00,41.0,12.0,-100.00,WSW,245,4.0,10.0,30,-99.99,,,0.00,645.000000,,2013-05-01 19:52:00,
2013-05-01 14:01:00,41.0,12.0,-100.00,WSW,245,4.0,10.0,30,-99.99,,,0.00,645.000000,,2013-05-01 20:01:00,
2013-05-01 14:11:00,41.0,12.0,-100.00,WSW,245,4.0,10.0,30,-99.99,,,0.00,645.000000,,2013-05-01 20:11:00,
2013-05-01 14:42:00,43.0,19.0,-100.00,ESE,113,4.0,9.0,38,0.00,,,0.00,723.000000,,2013-05-01 20:42:00,
2013-05-01 14:52:00,43.0,19.0,-100.00,ESE,113,4.0,9.0,38,0.00,,,0.00,723.000000,,2013-05-01 20:52:00,
2013-05-01 15:01:00,43.0,19.0,-100.00,ESE,113,4.0,9.0,38,0.00,,,0.00,723.000000,,2013-05-01 21:01:00,
2013-05-01 15:11:00,43.0,19.0,-100.00,ESE,113,4.0,9.0,38,0.00,,,0.00,723.000000,,2013-05-01 21:11:00,
2013-05-01 15:43:00,48.0,11.0,-100.00,SW,215,5.0,15.0,22,0.00,,,-99.99,929.000000,,2013-05-01 21:43:00,
2013-05-01 15:53:00,48.0,11.0,-100.00,SW,215,5.0,15.0,22,0.00,,,-99.99,929.000000,,2013-05-01 21:53:00,
2013-05-01 16:03:00,48.0,11.0,-100.00,SW,215,5.0,15.0,22,0.00,,,-99.99,929.000000,,2013-05-01 22:03:00,
2013-05-01 16:12:00,48.0,11.0,-100.00,SW,215,5.0,15.0,22,0.00,,,-99.99,929.000000,,2013-05-01 22:12:00,
2013-05-01 16:33:00,47.0,9.0,-100.00,South,174,7.0,16.0,21,0.00,,,0.00,860.000000,,2013-05-01 22:33:00,
2013-05-01 16:42:00,47.0,9.0,-100.00,South,174,7.0,16.0,21,0.00,,,0.00,860.000000,,2013-05-01 22:42:00,
2013-05-01 16:53:00,47.0,9.0,-100.00,South,174,7.0,16.0,21,0.00,,,0.00,860.000000,,2013-05-01 22:53:00,
2013-05-01 17:01:00,47.0,9.0,-100.00,South,174,7.0,16.0,21,0.00,,,0.00,860.000000,,2013-05-01 23:01:00,
2013-05-01 17:11:00,47.0,9.0,-100.00,South,174,7.0,16.0,21,0.00,,,0.00,860.000000,,2013-05-01 23:11:00,
2013-05-01 17:32:00,50.0,14.0,-100.00,SE,124,4.0,12.0,23,0.00,,,-99.99,832.000000,,2013-05-01 23:32:00,
2013-05-01 17:42:00,50.0,14.0,-100.00,SE,124,4.0,12.0,23,0.00,,,-99.99,832.000000,,2013-05-01 23:42:00,
2013-05-01 17:52:00,50.0,14.0,-100.00,SE,124,4.0,12.0,23,0.00,,,-99.99,832.000000,,2013-05-01 23:52:00,
2013-05-01 18:01:00,50.0,14.0,-100.00,SE,124,4.0,12.0,23,0.00,,,-99.99,832.000000,,2013-05-02 00:01:00,
2013-05-01 18:11:00,50.0,14.0,-100.00,SE,124,4.0,12.0,23,0.00,,,-99.99,832.000000,,2013-05-02 00:11:00,
2013-05-01 19:42:00,47.0,13.0,-100.00,South,190,6.0,13.0,25,-99.99,,,0.00,493.000000,,2013-05-02 01:42:00,
2013-05-01 19:52:00,47.0,13.0,-100.00,South,190,6.0,13.0,25,-99.99,,,0.00,493.000000,,2013-05-02 01:52:00,
2013-05-01 20:01:00,47.0,13.0,-100.00,South,190,6.0,13.0,25,-99.99,,,0.00,493.000000,,2013-05-02 02:01:00,
2013-05-01 20:11:00,47.0,13.0,-100.00,South,190,6.0,13.0,25,-99.99,,,0.00,493.000000,,2013-05-02 02:11:00,
2013-05-01 21:01:00,45.0,15.0,-100.00,South,188,4.0,10.0,29,0.00,,,0.00,239.000000,,2013-05-02 03:01:00,
2013-05-01 21:11:00,45.0,15.0,-100.00,South,188,4.0,10.0,29,0.00,,,0.00,239.000000,,2013-05-02 03:11:00,
2013-05-01 21:33:00,37.0,21.0,-100.00,SE,144,2.0,6.0,52,0.00,,,0.00,24.000000,,2013-05-02 03:33:00,
2013-05-01 21:43:00,37.0,21.0,-100.00,SE,144,2.0,6.0,52,0.00,,,0.00,24.000000,,2013-05-02 03:43:00,
2013-05-01 21:53:00,37.0,21.0,-100.00,SE,144,2.0,6.0,52,0.00,,,0.00,24.000000,,2013-05-02 03:53:00,
2013-05-01 22:03:00,37.0,21.0,-100.00,SE,144,2.0,6.0,52,0.00,,,0.00,24.000000,,2013-05-02 04:03:00,
2013-05-01 22:12:00,37.0,21.0,-100.00,SE,144,2.0,6.0,52,0.00,,,0.00,24.000000,,2013-05-02 04:12:00,
2013-05-01 22:33:00,33.0,21.0,-100.00,ESE,105,1.0,4.0,62,0.00,,,0.00,5.000000,,2013-05-02 04:33:00,
2013-05-01 22:43:00,33.0,21.0,-100.00,ESE,105,1.0,4.0,62,0.00,,,0.00,5.000000,,2013-05-02 04:43:00,
2013-05-01 22:52:00,33.0,21.0,-100.00,ESE,105,1.0,4.0,62,0.00,,,0.00,5.000000,,2013-05-02 04:52:00,
2013-05-01 23:02:00,33.0,21.0,-100.00,ESE,105,1.0,4.0,62,0.00,,,0.00,5.000000,,2013-05-02 05:02:00,
2013-05-01 23:11:00,33.0,21.0,-100.00,ESE,105,1.0,4.0,62,0.00,,,0.00,5.000000,,2013-05-02 05:11:00,
2013-05-01 23:32:00,30.0,20.0,-100.00,East,91,1.0,4.0,66,0.00,,,0.00,1.000000,,2013-05-02 05:32:00,
2013-05-01 23:42:00,30.0,20.0,-100.00,East,91,1.0,4.0,66,0.00,,,0.00,1.000000,,2013-05-02 05:42:00,
2013-05-01 23:52:00,30.0,20.0,-100.00,East,91,1.0,4.0,66,0.00,,,0.00,1.000000,,2013-05-02 05:52:00,